Latest Weather Observations for Carters Bore

IDQ60801

Issued at 4:32 pm EST Sunday 21 December 2014 (issued every 30 minutes, with the page automatically refreshed every 10 minutes)

About weather observations | Map of weather stations | Latest weather observations for QLD | Other Formats
Station Details ID: 037053 Name: CARTERS BORE Lat: -20.94 Lon: 139.30 Height: 396.0 m
Data from the previous 72 hours. | See also: Recent months for locations in Queensland
Date/Time
EST
Temp
°C
App
Temp
°C
Dew
Point
Rel
Hum
%
Delta-T
°C
Wind Press
QNH
hPa
Press
MSL
hPa
Rain
since 9 am
mm
Dir
 
Spd
km/h
Gust
km/h
Spd
kts
Gust
kts
21/04:30pm 39.0 35.0 6.7 14 18.4 ESE 17 28 9 15 - - 0.0
21/04:00pm 39.2 37.0 7.8 15 18.2 ESE 9 19 5 10 - - 0.0
21/03:30pm 40.0 38.0 6.4 13 19.1 SSE 6 17 3 9 - - 0.0
21/03:00pm 38.6 36.7 7.4 15 17.9 ENE 7 15 4 8 - - 0.0
21/02:30pm 39.0 36.8 7.7 15 18.1 SSE 9 20 5 11 - - 0.0
21/02:00pm 38.9 35.3 6.6 14 18.4 ESE 15 20 8 11 - - 0.0
21/01:30pm 38.9 36.8 6.6 14 18.4 SSE 7 15 4 8 - - 0.0
21/01:00pm 38.4 37.0 7.2 15 17.8 WNW 4 9 2 5 - - 0.0
21/12:30pm 38.0 34.8 6.9 15 17.7 ENE 13 20 7 11 - - 0.0
21/12:00pm 38.1 35.9 7.9 16 17.4 E 9 20 5 11 - - 0.0
21/11:30am 37.6 35.1 8.4 17 16.9 E 11 22 6 12 - - 0.0
21/11:00am 36.6 33.8 8.4 18 16.3 NE 13 26 7 14 - - 0.0
21/10:30am 35.8 33.2 12.1 24 14.4 NNE 17 24 9 13 - - 0.0
21/10:00am 35.4 32.7 13.0 26 13.8 NE 19 28 10 15 - - 0.0
21/09:30am 34.7 32.4 13.0 27 13.3 NNE 17 26 9 14 - - 0.0
21/09:00am 33.5 30.5 12.5 28 12.7 NNE 20 32 11 17 - - 0.0
21/08:30am 32.8 29.8 11.9 28 12.5 NE 19 30 10 16 - - 0.0
21/08:00am 31.8 28.9 11.0 28 12.2 NE 17 24 9 13 - - 0.0
21/07:30am 30.9 27.8 10.3 28 11.9 NE 17 26 9 14 - - 0.0
21/07:00am 29.8 26.9 8.2 26 12.1 NE 13 20 7 11 - - 0.0
21/06:30am 29.0 26.4 7.6 26 11.8 NE 11 15 6 8 - - 0.0
21/06:00am 29.3 26.3 7.8 26 11.9 NE 13 20 7 11 - - 0.0
21/05:30am 29.2 26.6 7.7 26 11.9 NE 11 17 6 9 - - 0.0
21/05:00am 29.5 27.0 8.0 26 11.9 NE 11 15 6 8 - - 0.0
21/04:30am 28.1 26.5 8.9 30 10.7 NE 7 9 4 5 - - 0.0
21/04:00am 27.6 25.8 9.4 32 10.2 NE 9 13 5 7 - - 0.0
21/03:30am 28.2 26.4 9.5 31 10.6 ENE 9 11 5 6 - - 0.0
21/03:00am 28.3 26.9 9.6 31 10.6 ENE 7 7 4 4 - - 0.0
21/02:30am 28.4 27.2 9.6 31 10.7 ENE 6 6 3 3 - - 0.0
21/02:00am 28.5 27.2 9.2 30 10.9 ENE 6 6 3 3 - - 0.0
21/01:30am 29.3 28.1 9.4 29 11.3 ENE 6 6 3 3 - - 0.0
21/01:00am 29.3 27.9 8.9 28 11.5 E 6 6 3 3 - - 0.0
21/12:30am 29.8 28.4 8.8 27 11.8 E 6 6 3 3 - - 0.0
21/12:00am 30.2 28.6 8.0 25 12.4 ENE 6 6 3 3 - - 0.0
 
Date/Time
EST
Temp
°C
App
Temp
°C
Dew
Point
Rel
Hum
%
Delta-T
°C
Wind Press
QNH
hPa
Press
MSL
hPa
Rain
since 9 am
mm
Dir
 
Spd
km/h
Gust
km/h
Spd
kts
Gust
kts
20/11:30pm 32.2 30.5 8.4 23 13.5 E 7 11 4 6 - - 0.0
20/11:00pm 32.3 30.6 8.5 23 13.5 ESE 7 11 4 6 - - 0.0
20/10:30pm 32.5 30.3 8.0 22 13.8 SE 9 11 5 6 - - 0.0
20/10:00pm 32.8 30.5 7.6 21 14.1 SE 9 13 5 7 - - 0.0
20/09:30pm 33.4 30.9 6.6 19 14.8 SE 9 13 5 7 - - 0.0
20/09:00pm 33.9 31.0 6.3 18 15.2 SE 11 13 6 7 - - 0.0
20/08:30pm 34.3 31.6 5.8 17 15.6 SE 9 13 5 7 - - 0.0
20/08:00pm 35.1 31.6 5.5 16 16.2 SE 13 19 7 10 - - 0.0
20/07:30pm 35.5 31.9 4.9 15 16.7 SE 13 19 7 10 - - 0.0
20/07:00pm 36.3 32.2 4.6 14 17.3 SE 15 22 8 12 - - 0.0
20/06:30pm 37.0 32.7 5.1 14 17.6 SSE 17 22 9 12 - - 0.0
20/06:00pm 37.6 33.8 5.6 14 17.8 SSE 15 22 8 12 - - 0.0
20/05:30pm 37.4 34.7 5.4 14 17.7 SE 9 19 5 10 - - 0.0
20/05:00pm 37.6 34.7 6.6 15 17.5 SE 11 17 6 9 - - 0.0
20/04:30pm 37.4 34.9 6.4 15 17.4 SSE 9 17 5 9 - - 0.0
20/04:00pm 37.4 34.1 8.2 17 16.9 SSW 15 22 8 12 - - 0.0
20/03:30pm 37.5 35.4 8.3 17 16.9 ESE 9 19 5 10 - - 0.0
20/03:00pm 37.6 35.3 7.5 16 17.2 ENE 9 17 5 9 - - 0.0
20/02:30pm 37.2 35.6 8.9 18 16.5 SSE 7 17 4 9 - - 0.0
20/02:00pm 37.4 35.1 9.1 18 16.6 S 11 19 6 10 - - 0.0
20/01:30pm 36.6 35.3 10.0 20 15.7 NE 7 17 4 9 - - 0.0
20/01:00pm 38.0 35.5 9.6 18 16.8 SE 13 26 7 14 - - 0.0
20/12:30pm 35.5 32.5 9.1 20 15.3 ESE 15 28 8 15 - - 0.0
20/12:00pm 35.8 33.2 9.3 20 15.5 ESE 13 20 7 11 - - 0.0
20/11:30am 35.9 33.2 10.2 21 15.2 E 15 28 8 15 - - 0.0
20/11:00am 35.4 32.0 9.0 20 15.3 E 17 30 9 16 - - 0.0
20/10:30am 34.5 31.4 10.4 23 14.2 ENE 17 26 9 14 - - 0.0
20/10:00am 34.1 30.3 11.3 25 13.6 ENE 22 33 12 18 - - 0.0
20/09:30am 33.3 30.1 11.8 27 12.9 E 20 33 11 18 - - 0.0
20/09:00am 32.5 29.5 12.7 30 12.0 ESE 20 33 11 18 - - 0.0
20/08:30am 31.9 29.5 12.7 31 11.6 E 17 24 9 13 - - 0.0
20/08:00am 30.8 28.1 11.7 31 11.3 E 17 24 9 13 - - 0.0
20/07:30am 30.0 27.3 9.0 27 11.9 ESE 13 20 7 11 - - 0.0
20/07:00am 29.2 26.0 8.3 27 11.6 ESE 15 20 8 11 - - 0.0
20/06:30am 28.3 25.3 7.5 27 11.4 ESE 13 19 7 10 - - 0.0
20/06:00am 27.8 24.4 7.6 28 11.0 SE 15 20 8 11 - - 0.0
20/05:30am 28.0 24.5 7.3 27 11.3 SE 15 22 8 12 - - 0.0
20/05:00am 28.3 24.9 7.5 27 11.4 SE 15 20 8 11 - - 0.0
20/04:30am 28.9 25.1 7.5 26 11.7 SE 17 28 9 15 - - 0.0
20/04:00am 29.0 24.8 7.6 26 11.8 SE 19 28 10 15 - - 0.0
20/03:30am 29.1 25.3 7.7 26 11.8 SE 17 24 9 13 - - 0.0
20/03:00am 28.8 26.6 7.9 27 11.5 SE 9 17 5 9 - - 0.0
20/02:30am 29.4 26.1 7.9 26 11.9 SE 15 20 8 11 - - 0.0
20/02:00am 29.5 26.2 8.0 26 11.9 SSE 15 20 8 11 - - 0.0
20/01:30am 29.6 26.1 8.6 27 11.8 SE 17 24 9 13 - - 0.0
20/01:00am 29.9 26.8 8.9 27 11.9 SE 15 24 8 13 - - 0.0
20/12:30am 30.2 27.2 9.1 27 12.0 SE 15 22 8 12 - - 0.0
20/12:00am 30.7 27.4 9.6 27 12.1 SSE 17 28 9 15 - - 0.0
 
Date/Time
EST
Temp
°C
App
Temp
°C
Dew
Point
Rel
Hum
%
Delta-T
°C
Wind Press
QNH
hPa
Press
MSL
hPa
Rain
since 9 am
mm
Dir
 
Spd
km/h
Gust
km/h
Spd
kts
Gust
kts
19/11:30pm 30.6 28.0 9.5 27 12.1 SSE 13 20 7 11 - - 0.0
19/11:00pm 31.2 29.2 8.8 25 12.7 SE 9 13 5 7 - - 0.0
19/10:30pm 31.8 29.8 8.7 24 13.1 SE 9 13 5 7 - - 0.0
19/10:00pm 32.1 29.8 9.0 24 13.2 SE 11 15 6 8 - - 0.0
19/09:30pm 32.4 29.8 9.2 24 13.3 SE 13 20 7 11 - - 0.0
19/09:00pm 32.6 30.5 11.2 27 12.7 SE 13 19 7 10 - - 0.0
19/08:30pm 32.9 31.2 12.5 29 12.3 SE 13 19 7 10 - - 0.0
19/08:00pm 33.1 31.3 13.2 30 12.2 SE 15 22 8 12 - - 0.0
19/07:30pm 33.4 30.9 13.5 30 12.2 SE 19 28 10 15 - - 0.0
19/07:00pm 34.0 31.1 12.9 28 12.9 SSE 20 32 11 17 - - 0.0
19/06:30pm 34.8 32.1 13.6 28 13.1 SE 20 35 11 19 - - 0.0
19/06:00pm 35.2 32.5 12.8 26 13.7 SE 19 28 10 15 - - 0.0
19/05:30pm 35.7 33.1 13.8 27 13.6 SE 20 35 11 19 - - 0.0
19/05:00pm 36.1 34.0 13.6 26 14.0 SSE 17 28 9 15 - - 0.0
19/04:30pm 35.8 33.4 13.9 27 13.7 SSE 19 28 10 15 - - 0.0
19/04:00pm 36.0 34.3 13.5 26 14.0 SSE 15 24 8 13 - - 0.0
19/03:30pm 36.5 35.3 13.9 26 14.1 SE 13 19 7 10 - - 0.0
19/03:00pm 35.7 35.8 13.8 27 13.6 NE 6 15 3 8 - - 0.0
19/02:30pm 35.4 34.2 14.1 28 13.3 S 13 28 7 15 - - 0.0
19/02:00pm 34.3 33.4 13.7 29 12.8 SSE 11 20 6 11 - - 0.0
19/01:30pm 34.8 33.9 13.6 28 13.1 ENE 11 19 6 10 - - 0.0
19/01:00pm 34.5 33.6 14.9 31 12.4 SSE 13 19 7 10 - - 0.0
19/12:30pm 33.0 32.2 14.1 32 11.7 SSE 11 20 6 11 - - 0.0
19/12:00pm 33.0 33.3 15.0 33 11.3 E 7 17 4 9 - - 0.0
19/11:30am 32.3 32.2 14.9 35 10.9 SE 9 15 5 8 - - 0.0
19/11:00am 31.1 30.4 15.5 39 9.8 SE 13 17 7 9 - - 0.0
19/10:30am 30.3 30.6 16.0 42 9.0 SSE 9 20 5 11 - - 0.0
19/10:00am 29.8 29.9 16.6 45 8.4 S 11 19 6 10 - - 0.0
19/09:30am 29.1 30.2 16.6 46 7.9 SSE 6 17 3 9 - - 0.0
19/09:00am 28.1 28.8 17.0 51 7.1 S 9 13 5 7 - - 0.0
19/08:30am 27.1 28.6 17.6 56 6.1 SW 6 9 3 5 - - 0.0
19/08:00am 26.7 28.8 18.0 59 5.6 SSW 4 6 2 3 - - 0.0
19/07:30am 26.0 28.1 18.2 62 5.0 S 4 6 2 3 - - 0.0
19/07:00am 25.1 27.8 17.8 64 4.7 CALM 0 0 0 0 - - 0.0
19/06:30am 23.9 26.8 18.1 70 3.7 CALM 0 0 0 0 - - 0.0
19/06:00am 23.6 25.9 18.5 73 3.3 S 4 6 2 3 - - 0.0
19/05:30am 23.3 25.4 18.0 72 3.4 SSE 4 4 2 2 - - 0.0
19/05:00am 24.1 25.9 18.3 70 3.7 S 6 7 3 4 - - 0.0
19/04:30am 23.8 25.9 18.0 70 3.7 SSE 4 4 2 2 - - 0.0
19/04:00am 24.4 27.3 18.1 68 4.0 CALM 0 0 0 0 - - 0.0
19/03:30am 24.6 26.9 17.8 66 4.3 E 2 2 1 1 - - 0.0
19/03:00am 24.9 27.0 18.1 66 4.3 ENE 4 6 2 3 - - 0.0
19/02:30am 25.1 26.6 18.1 65 4.5 NE 7 9 4 5 - - 0.0
19/02:00am 25.3 26.9 18.2 64 4.6 E 7 9 4 5 - - 0.0
19/01:30am 25.4 26.5 18.1 64 4.7 E 9 13 5 7 - - 0.0
19/01:00am 25.6 26.5 18.3 64 4.7 E 11 19 6 10 - - 0.0
19/12:30am 25.8 27.1 18.5 64 4.7 E 9 17 5 9 - - 0.0
19/12:00am 25.9 26.5 18.6 64 4.7 E 13 20 7 11 - - 0.0
 
Date/Time
EST
Temp
°C
App
Temp
°C
Dew
Point
Rel
Hum
%
Delta-T
°C
Wind Press
QNH
hPa
Press
MSL
hPa
Rain
since 9 am
mm
Dir
 
Spd
km/h
Gust
km/h
Spd
kts
Gust
kts
18/11:30pm 26.1 26.8 18.8 64 4.7 ESE 13 20 7 11 - - 0.0
18/11:00pm 26.1 26.8 18.8 64 4.7 ESE 13 20 7 11 - - 0.0
18/10:30pm 26.2 26.7 18.3 61 5.1 SE 13 19 7 10 - - 0.0
18/10:00pm 26.3 26.4 18.4 61 5.1 ESE 15 20 8 11 - - 0.0
18/09:30pm 26.5 26.5 18.9 63 4.9 SE 17 24 9 13 - - 0.0
18/09:00pm 26.9 27.1 18.5 60 5.4 SE 15 22 8 12 - - 0.0
18/08:30pm 27.4 27.8 18.1 57 6.0 ESE 13 20 7 11 - - 0.0
18/08:00pm 28.3 28.4 17.5 52 6.9 ESE 13 19 7 10 - - 0.0
18/07:30pm 28.5 28.8 17.1 50 7.3 ESE 11 17 6 9 - - 0.0
18/07:00pm 28.8 29.6 17.3 49 7.4 ESE 9 17 5 9 - - 0.0
18/06:30pm 28.6 29.4 17.2 50 7.3 SE 9 17 5 9 - - 0.0
18/06:00pm 28.7 28.7 17.2 49 7.3 SSE 13 17 7 9 - - 0.0
18/05:30pm 28.6 28.2 17.2 50 7.3 SSE 15 22 8 12 - - 0.0
18/05:00pm 29.0 28.4 17.5 49 7.4 SSE 17 24 9 13 - - 0.0

Other Formats:

Comma delimited format used in spreadsheet applications
http://www.bom.gov.au/fwo/IDQ60801/IDQ60801.94347.axf

JavaScript Object Notation format (JSON) in row-major order
http://www.bom.gov.au/fwo/IDQ60801/IDQ60801.94347.json